sensor_id;sensor_type;location;lat;lon;timestamp;temperature;humidity
26262;DHT22;13988;52.446;13.280;2022-12-10T00:01:18;-0.90;99.90
26262;DHT22;13988;52.446;13.280;2022-12-10T00:03:44;-0.90;99.90
26262;DHT22;13988;52.446;13.280;2022-12-10T00:06:13;-1.00;99.90
26262;DHT22;13988;52.446;13.280;2022-12-10T00:08:40;-1.00;99.90
26262;DHT22;13988;52.446;13.280;2022-12-10T00:11:07;-0.90;99.90
26262;DHT22;13988;52.446;13.280;2022-12-10T00:13:33;-1.00;99.90
26262;DHT22;13988;52.446;13.280;2022-12-10T00:16:00;-1.00;99.90
26262;DHT22;13988;52.446;13.280;2022-12-10T00:18:26;-1.00;99.90
26262;DHT22;13988;52.446;13.280;2022-12-10T00:20:52;-1.10;99.90
26262;DHT22;13988;52.446;13.280;2022-12-10T00:23:18;-1.10;99.90
26262;DHT22;13988;52.446;13.280;2022-12-10T00:25:44;-1.10;99.90
26262;DHT22;13988;52.446;13.280;2022-12-10T00:28:09;-1.10;99.90
26262;DHT22;13988;52.446;13.280;2022-12-10T00:30:35;-1.10;99.90
26262;DHT22;13988;52.446;13.280;2022-12-10T00:33:01;-1.10;99.90
26262;DHT22;13988;52.446;13.280;2022-12-10T00:35:26;-1.10;99.90
26262;DHT22;13988;52.446;13.280;2022-12-10T00:37:52;-1.10;99.90
26262;DHT22;13988;52.446;13.280;2022-12-10T00:40:17;-1.20;99.90
26262;DHT22;13988;52.446;13.280;2022-12-10T00:42:43;-1.20;99.90
26262;DHT22;13988;52.446;13.280;2022-12-10T00:45:09;-1.30;99.90
26262;DHT22;13988;52.446;13.280;2022-12-10T00:47:35;-1.30;99.90
26262;DHT22;13988;52.446;13.280;2022-12-10T00:50:00;-1.30;99.90
26262;DHT22;13988;52.446;13.280;2022-12-10T00:52:26;-1.30;99.90
26262;DHT22;13988;52.446;13.280;2022-12-10T00:54:52;-1.30;99.90
26262;DHT22;13988;52.446;13.280;2022-12-10T00:57:17;-1.40;99.90
26262;DHT22;13988;52.446;13.280;2022-12-10T00:59:43;-1.40;99.90
26262;DHT22;13988;52.446;13.280;2022-12-10T01:02:09;-1.40;99.90
26262;DHT22;13988;52.446;13.280;2022-12-10T01:04:34;-1.40;99.90
26262;DHT22;13988;52.446;13.280;2022-12-10T01:07:00;-1.40;99.90
26262;DHT22;13988;52.446;13.280;2022-12-10T01:09:28;-1.40;99.90
26262;DHT22;13988;52.446;13.280;2022-12-10T01:11:56;-1.40;99.90
26262;DHT22;13988;52.446;13.280;2022-12-10T01:14:25;-1.40;99.90
26262;DHT22;13988;52.446;13.280;2022-12-10T01:16:55;-1.40;99.90
26262;DHT22;13988;52.446;13.280;2022-12-10T01:19:21;-1.40;99.90
26262;DHT22;13988;52.446;13.280;2022-12-10T01:21:52;-1.40;99.90
26262;DHT22;13988;52.446;13.280;2022-12-10T01:24:19;-1.40;99.90
26262;DHT22;13988;52.446;13.280;2022-12-10T01:26:44;-1.40;99.90
26262;DHT22;13988;52.446;13.280;2022-12-10T01:29:11;-1.40;99.90
26262;DHT22;13988;52.446;13.280;2022-12-10T01:31:37;-1.40;99.90
26262;DHT22;13988;52.446;13.280;2022-12-10T01:34:04;-1.40;99.90
26262;DHT22;13988;52.446;13.280;2022-12-10T01:36:42;-1.50;99.90
26262;DHT22;13988;52.446;13.280;2022-12-10T01:39:10;-1.40;99.90
26262;DHT22;13988;52.446;13.280;2022-12-10T01:41:39;-1.50;99.90
26262;DHT22;13988;52.446;13.280;2022-12-10T01:46:39;-1.50;99.90
26262;DHT22;13988;52.446;13.280;2022-12-10T01:49:08;-1.50;99.90
26262;DHT22;13988;52.446;13.280;2022-12-10T01:51:36;-1.40;99.90
26262;DHT22;13988;52.446;13.280;2022-12-10T01:54:04;-1.50;99.90
26262;DHT22;13988;52.446;13.280;2022-12-10T01:56:36;-1.40;99.90
26262;DHT22;13988;52.446;13.280;2022-12-10T01:59:03;-1.40;99.90
26262;DHT22;13988;52.446;13.280;2022-12-10T02:01:39;-1.40;99.90
26262;DHT22;13988;52.446;13.280;2022-12-10T02:06:59;-1.50;99.90
26262;DHT22;13988;52.446;13.280;2022-12-10T02:10:31;-1.50;99.90
26262;DHT22;13988;52.446;13.280;2022-12-10T02:13:17;-1.50;99.90
26262;DHT22;13988;52.446;13.280;2022-12-10T02:16:03;-1.50;99.90
26262;DHT22;13988;52.446;13.280;2022-12-10T02:18:41;-1.50;99.90
26262;DHT22;13988;52.446;13.280;2022-12-10T02:21:14;-1.50;99.90
26262;DHT22;13988;52.446;13.280;2022-12-10T02:23:49;-1.50;99.90
26262;DHT22;13988;52.446;13.280;2022-12-10T02:31:25;-1.60;99.90
26262;DHT22;13988;52.446;13.280;2022-12-10T02:33:56;-1.60;99.90
26262;DHT22;13988;52.446;13.280;2022-12-10T02:36:23;-1.60;99.90
26262;DHT22;13988;52.446;13.280;2022-12-10T02:38:50;-1.60;99.90
26262;DHT22;13988;52.446;13.280;2022-12-10T02:41:25;-1.60;99.90
26262;DHT22;13988;52.446;13.280;2022-12-10T02:43:54;-1.60;99.90
26262;DHT22;13988;52.446;13.280;2022-12-10T02:46:22;-1.60;99.90
26262;DHT22;13988;52.446;13.280;2022-12-10T02:48:50;-1.70;99.90
26262;DHT22;13988;52.446;13.280;2022-12-10T02:51:16;-1.60;99.90
26262;DHT22;13988;52.446;13.280;2022-12-10T02:53:45;-1.70;99.90
26262;DHT22;13988;52.446;13.280;2022-12-10T02:56:27;-1.70;99.90
26262;DHT22;13988;52.446;13.280;2022-12-10T03:01:55;-1.90;99.90
26262;DHT22;13988;52.446;13.280;2022-12-10T03:04:28;-1.80;99.90
26262;DHT22;13988;52.446;13.280;2022-12-10T03:07:10;-1.80;99.90
26262;DHT22;13988;52.446;13.280;2022-12-10T03:09:52;-1.70;99.90
26262;DHT22;13988;52.446;13.280;2022-12-10T03:12:27;-1.80;99.90
26262;DHT22;13988;52.446;13.280;2022-12-10T03:14:58;-1.80;99.90
26262;DHT22;13988;52.446;13.280;2022-12-10T03:17:24;-1.80;99.90
26262;DHT22;13988;52.446;13.280;2022-12-10T03:19:51;-1.70;99.90
26262;DHT22;13988;52.446;13.280;2022-12-10T03:22:19;-1.70;99.90
26262;DHT22;13988;52.446;13.280;2022-12-10T03:24:46;-1.70;99.90
26262;DHT22;13988;52.446;13.280;2022-12-10T03:27:14;-1.60;99.90
26262;DHT22;13988;52.446;13.280;2022-12-10T03:29:49;-1.60;99.90
26262;DHT22;13988;52.446;13.280;2022-12-10T03:32:18;-1.60;99.90
26262;DHT22;13988;52.446;13.280;2022-12-10T03:34:44;-1.60;99.90
26262;DHT22;13988;52.446;13.280;2022-12-10T03:37:11;-1.60;99.90
26262;DHT22;13988;52.446;13.280;2022-12-10T03:39:38;-1.70;99.90
26262;DHT22;13988;52.446;13.280;2022-12-10T03:42:05;-1.60;99.90
26262;DHT22;13988;52.446;13.280;2022-12-10T03:44:35;-1.70;99.90
26262;DHT22;13988;52.446;13.280;2022-12-10T03:47:02;-1.70;99.90
26262;DHT22;13988;52.446;13.280;2022-12-10T03:49:28;-1.70;99.90
26262;DHT22;13988;52.446;13.280;2022-12-10T03:51:54;-1.60;99.90
26262;DHT22;13988;52.446;13.280;2022-12-10T03:54:20;-1.60;99.90
26262;DHT22;13988;52.446;13.280;2022-12-10T03:56:46;-1.60;99.90
26262;DHT22;13988;52.446;13.280;2022-12-10T03:59:11;-1.60;99.90
26262;DHT22;13988;52.446;13.280;2022-12-10T04:01:37;-1.70;99.90
26262;DHT22;13988;52.446;13.280;2022-12-10T04:04:04;-1.60;99.90
26262;DHT22;13988;52.446;13.280;2022-12-10T04:06:30;-1.60;99.90
26262;DHT22;13988;52.446;13.280;2022-12-10T04:08:55;-1.60;99.90
26262;DHT22;13988;52.446;13.280;2022-12-10T04:11:21;-1.60;99.90
26262;DHT22;13988;52.446;13.280;2022-12-10T04:13:48;-1.60;99.90
26262;DHT22;13988;52.446;13.280;2022-12-10T04:16:34;-1.60;99.90
26262;DHT22;13988;52.446;13.280;2022-12-10T04:19:07;-1.60;99.90
26262;DHT22;13988;52.446;13.280;2022-12-10T04:21:35;-1.60;99.90
26262;DHT22;13988;52.446;13.280;2022-12-10T04:24:23;-1.60;99.90
26262;DHT22;13988;52.446;13.280;2022-12-10T04:27:11;-1.60;99.90
26262;DHT22;13988;52.446;13.280;2022-12-10T04:29:40;-1.60;99.90
26262;DHT22;13988;52.446;13.280;2022-12-10T04:32:06;-1.70;99.90
26262;DHT22;13988;52.446;13.280;2022-12-10T04:34:31;-1.60;99.90
26262;DHT22;13988;52.446;13.280;2022-12-10T04:36:58;-1.60;99.90
26262;DHT22;13988;52.446;13.280;2022-12-10T04:39:24;-1.60;99.90
26262;DHT22;13988;52.446;13.280;2022-12-10T04:41:50;-1.70;99.90
26262;DHT22;13988;52.446;13.280;2022-12-10T04:44:16;-1.60;99.90
26262;DHT22;13988;52.446;13.280;2022-12-10T04:46:42;-1.60;99.90
26262;DHT22;13988;52.446;13.280;2022-12-10T04:49:08;-1.60;99.90
26262;DHT22;13988;52.446;13.280;2022-12-10T04:51:34;-1.60;99.90
26262;DHT22;13988;52.446;13.280;2022-12-10T04:54:00;-1.60;99.90
26262;DHT22;13988;52.446;13.280;2022-12-10T04:56:26;-1.50;99.90
26262;DHT22;13988;52.446;13.280;2022-12-10T04:58:51;-1.50;99.90
26262;DHT22;13988;52.446;13.280;2022-12-10T05:01:17;-1.60;99.90
26262;DHT22;13988;52.446;13.280;2022-12-10T05:03:46;-1.60;99.90
26262;DHT22;13988;52.446;13.280;2022-12-10T05:06:13;-1.60;99.90
26262;DHT22;13988;52.446;13.280;2022-12-10T05:08:40;-1.60;99.90
26262;DHT22;13988;52.446;13.280;2022-12-10T05:11:14;-1.50;99.90
26262;DHT22;13988;52.446;13.280;2022-12-10T05:13:40;-1.60;99.90
26262;DHT22;13988;52.446;13.280;2022-12-10T05:16:09;-1.50;99.90
26262;DHT22;13988;52.446;13.280;2022-12-10T05:18:35;-1.50;99.90
26262;DHT22;13988;52.446;13.280;2022-12-10T05:21:03;-1.50;99.90
26262;DHT22;13988;52.446;13.280;2022-12-10T05:23:29;-1.60;99.90
26262;DHT22;13988;52.446;13.280;2022-12-10T05:28:25;-1.50;99.90
26262;DHT22;13988;52.446;13.280;2022-12-10T05:30:51;-1.50;99.90
26262;DHT22;13988;52.446;13.280;2022-12-10T05:33:16;-1.50;99.90
26262;DHT22;13988;52.446;13.280;2022-12-10T05:35:42;-1.50;99.90
26262;DHT22;13988;52.446;13.280;2022-12-10T05:38:08;-1.50;99.90
26262;DHT22;13988;52.446;13.280;2022-12-10T05:40:38;-1.50;99.90
26262;DHT22;13988;52.446;13.280;2022-12-10T05:43:04;-1.40;99.90
26262;DHT22;13988;52.446;13.280;2022-12-10T05:45:31;-1.40;99.90
26262;DHT22;13988;52.446;13.280;2022-12-10T05:47:58;-1.50;99.90
26262;DHT22;13988;52.446;13.280;2022-12-10T05:50:24;-1.50;99.90
26262;DHT22;13988;52.446;13.280;2022-12-10T05:52:50;-1.40;99.90
26262;DHT22;13988;52.446;13.280;2022-12-10T05:55:16;-1.40;99.90
26262;DHT22;13988;52.446;13.280;2022-12-10T05:57:42;-1.40;99.90
26262;DHT22;13988;52.446;13.280;2022-12-10T06:00:08;-1.40;99.90
26262;DHT22;13988;52.446;13.280;2022-12-10T06:02:34;-1.40;99.90
26262;DHT22;13988;52.446;13.280;2022-12-10T06:04:59;-1.40;99.90
26262;DHT22;13988;52.446;13.280;2022-12-10T06:07:25;-1.40;99.90
26262;DHT22;13988;52.446;13.280;2022-12-10T06:09:51;-1.40;99.90
26262;DHT22;13988;52.446;13.280;2022-12-10T06:12:17;-1.30;99.90
26262;DHT22;13988;52.446;13.280;2022-12-10T06:14:42;-1.30;99.90
26262;DHT22;13988;52.446;13.280;2022-12-10T06:17:08;-1.30;99.90
26262;DHT22;13988;52.446;13.280;2022-12-10T06:19:34;-1.30;99.90
26262;DHT22;13988;52.446;13.280;2022-12-10T06:22:00;-1.30;99.90
26262;DHT22;13988;52.446;13.280;2022-12-10T06:24:25;-1.30;99.90
26262;DHT22;13988;52.446;13.280;2022-12-10T06:26:51;-1.30;99.90
26262;DHT22;13988;52.446;13.280;2022-12-10T06:29:17;-1.20;99.90
26262;DHT22;13988;52.446;13.280;2022-12-10T06:31:43;-1.20;99.90
26262;DHT22;13988;52.446;13.280;2022-12-10T06:34:09;-1.20;99.90
26262;DHT22;13988;52.446;13.280;2022-12-10T06:36:34;-1.20;99.90
26262;DHT22;13988;52.446;13.280;2022-12-10T06:39:00;-1.30;99.90
26262;DHT22;13988;52.446;13.280;2022-12-10T06:41:26;-1.30;99.90
26262;DHT22;13988;52.446;13.280;2022-12-10T06:43:51;-1.30;99.90
26262;DHT22;13988;52.446;13.280;2022-12-10T06:46:19;-1.20;99.90
26262;DHT22;13988;52.446;13.280;2022-12-10T06:48:45;-1.20;99.90
26262;DHT22;13988;52.446;13.280;2022-12-10T06:51:12;-1.20;99.90
26262;DHT22;13988;52.446;13.280;2022-12-10T06:53:39;-1.20;99.90
26262;DHT22;13988;52.446;13.280;2022-12-10T06:56:06;-1.20;99.90
26262;DHT22;13988;52.446;13.280;2022-12-10T06:58:33;-1.20;99.90
26262;DHT22;13988;52.446;13.280;2022-12-10T07:01:07;-1.20;99.90
26262;DHT22;13988;52.446;13.280;2022-12-10T07:03:33;-1.20;99.90
26262;DHT22;13988;52.446;13.280;2022-12-10T07:06:00;-1.20;99.90
26262;DHT22;13988;52.446;13.280;2022-12-10T07:08:25;-1.20;99.90
26262;DHT22;13988;52.446;13.280;2022-12-10T07:10:51;-1.20;99.90
26262;DHT22;13988;52.446;13.280;2022-12-10T07:13:17;-1.10;99.90
26262;DHT22;13988;52.446;13.280;2022-12-10T07:15:42;-1.10;99.90
26262;DHT22;13988;52.446;13.280;2022-12-10T07:18:08;-1.10;99.90
26262;DHT22;13988;52.446;13.280;2022-12-10T07:20:34;-1.10;99.90
26262;DHT22;13988;52.446;13.280;2022-12-10T07:22:59;-1.10;99.90
26262;DHT22;13988;52.446;13.280;2022-12-10T07:25:25;-1.00;99.90
26262;DHT22;13988;52.446;13.280;2022-12-10T07:27:50;-1.00;99.90
26262;DHT22;13988;52.446;13.280;2022-12-10T07:30:16;-0.90;99.90
26262;DHT22;13988;52.446;13.280;2022-12-10T07:32:42;-1.00;99.90
26262;DHT22;13988;52.446;13.280;2022-12-10T07:35:07;-1.10;99.90
26262;DHT22;13988;52.446;13.280;2022-12-10T07:37:33;-1.00;99.90
26262;DHT22;13988;52.446;13.280;2022-12-10T07:39:59;-1.00;99.90
26262;DHT22;13988;52.446;13.280;2022-12-10T07:42:24;-1.00;99.90
26262;DHT22;13988;52.446;13.280;2022-12-10T07:44:50;-1.00;99.90
26262;DHT22;13988;52.446;13.280;2022-12-10T07:47:16;-1.00;99.90
26262;DHT22;13988;52.446;13.280;2022-12-10T07:49:41;-1.10;99.90
26262;DHT22;13988;52.446;13.280;2022-12-10T07:52:08;-1.10;99.90
26262;DHT22;13988;52.446;13.280;2022-12-10T07:54:34;-1.00;99.90
26262;DHT22;13988;52.446;13.280;2022-12-10T07:57:00;-1.00;99.90
26262;DHT22;13988;52.446;13.280;2022-12-10T07:59:25;-1.00;99.90
26262;DHT22;13988;52.446;13.280;2022-12-10T08:01:51;-1.00;99.90
26262;DHT22;13988;52.446;13.280;2022-12-10T08:04:17;-1.00;99.90
26262;DHT22;13988;52.446;13.280;2022-12-10T08:06:43;-1.10;99.90
26262;DHT22;13988;52.446;13.280;2022-12-10T08:09:09;-1.00;99.90
26262;DHT22;13988;52.446;13.280;2022-12-10T08:11:34;-1.00;99.90
26262;DHT22;13988;52.446;13.280;2022-12-10T08:14:00;-1.00;99.90
26262;DHT22;13988;52.446;13.280;2022-12-10T08:16:27;-1.00;99.90
26262;DHT22;13988;52.446;13.280;2022-12-10T08:18:55;-1.00;99.90
26262;DHT22;13988;52.446;13.280;2022-12-10T08:21:23;-1.00;99.90
26262;DHT22;13988;52.446;13.280;2022-12-10T08:23:49;-0.90;99.90
26262;DHT22;13988;52.446;13.280;2022-12-10T08:26:18;-1.00;99.90
26262;DHT22;13988;52.446;13.280;2022-12-10T08:28:44;-1.00;99.90
26262;DHT22;13988;52.446;13.280;2022-12-10T08:31:11;-1.00;99.90
26262;DHT22;13988;52.446;13.280;2022-12-10T08:33:38;-1.00;99.90
26262;DHT22;13988;52.446;13.280;2022-12-10T08:36:05;-1.00;99.90
26262;DHT22;13988;52.446;13.280;2022-12-10T08:38:32;-1.00;99.90
26262;DHT22;13988;52.446;13.280;2022-12-10T08:40:58;-0.90;99.90
26262;DHT22;13988;52.446;13.280;2022-12-10T08:43:24;-0.90;99.90
26262;DHT22;13988;52.446;13.280;2022-12-10T08:45:49;-0.90;99.90
26262;DHT22;13988;52.446;13.280;2022-12-10T08:48:15;-0.90;99.90
26262;DHT22;13988;52.446;13.280;2022-12-10T08:50:41;-0.90;99.90
26262;DHT22;13988;52.446;13.280;2022-12-10T08:53:07;-0.90;99.90
26262;DHT22;13988;52.446;13.280;2022-12-10T08:55:33;-0.90;99.90
26262;DHT22;13988;52.446;13.280;2022-12-10T08:58:03;-0.90;99.90
26262;DHT22;13988;52.446;13.280;2022-12-10T09:00:28;-0.80;99.90
26262;DHT22;13988;52.446;13.280;2022-12-10T09:02:54;-0.90;99.90
26262;DHT22;13988;52.446;13.280;2022-12-10T09:05:19;-0.80;99.90
26262;DHT22;13988;52.446;13.280;2022-12-10T09:07:45;-0.80;99.90
26262;DHT22;13988;52.446;13.280;2022-12-10T09:10:11;-0.80;99.90
26262;DHT22;13988;52.446;13.280;2022-12-10T09:12:37;-0.80;99.90
26262;DHT22;13988;52.446;13.280;2022-12-10T09:15:04;-0.80;99.90
26262;DHT22;13988;52.446;13.280;2022-12-10T09:17:30;-0.80;99.90
26262;DHT22;13988;52.446;13.280;2022-12-10T09:19:55;-0.70;99.90
26262;DHT22;13988;52.446;13.280;2022-12-10T09:22:21;-0.70;99.90
26262;DHT22;13988;52.446;13.280;2022-12-10T09:24:47;-0.80;99.90
26262;DHT22;13988;52.446;13.280;2022-12-10T09:27:12;-0.70;99.90
26262;DHT22;13988;52.446;13.280;2022-12-10T09:29:38;-0.70;99.90
26262;DHT22;13988;52.446;13.280;2022-12-10T09:32:04;-0.80;99.90
26262;DHT22;13988;52.446;13.280;2022-12-10T09:34:29;-0.70;99.90
26262;DHT22;13988;52.446;13.280;2022-12-10T09:36:55;-0.70;99.90
26262;DHT22;13988;52.446;13.280;2022-12-10T09:39:21;-0.70;99.90
26262;DHT22;13988;52.446;13.280;2022-12-10T09:47:10;-0.70;99.90
26262;DHT22;13988;52.446;13.280;2022-12-10T09:52:20;-0.60;99.90
26262;DHT22;13988;52.446;13.280;2022-12-10T09:55:12;-0.60;99.90
26262;DHT22;13988;52.446;13.280;2022-12-10T09:57:43;-0.50;99.90
26262;DHT22;13988;52.446;13.280;2022-12-10T10:00:18;-0.50;99.90
26262;DHT22;13988;52.446;13.280;2022-12-10T10:02:44;-0.50;99.90
26262;DHT22;13988;52.446;13.280;2022-12-10T10:05:21;-0.50;99.90
26262;DHT22;13988;52.446;13.280;2022-12-10T10:08:03;-0.60;99.90
26262;DHT22;13988;52.446;13.280;2022-12-10T10:10:30;-0.50;99.90
26262;DHT22;13988;52.446;13.280;2022-12-10T10:18:46;-0.40;99.90
26262;DHT22;13988;52.446;13.280;2022-12-10T10:21:24;-0.40;99.90
26262;DHT22;13988;52.446;13.280;2022-12-10T10:23:51;-0.40;99.90
26262;DHT22;13988;52.446;13.280;2022-12-10T10:26:17;-0.40;99.90
26262;DHT22;13988;52.446;13.280;2022-12-10T10:28:43;-0.40;99.90
26262;DHT22;13988;52.446;13.280;2022-12-10T10:31:23;-0.50;99.90
26262;DHT22;13988;52.446;13.280;2022-12-10T10:33:57;-0.40;99.90
26262;DHT22;13988;52.446;13.280;2022-12-10T10:36:29;-0.40;99.90
26262;DHT22;13988;52.446;13.280;2022-12-10T10:38:55;-0.30;99.90
26262;DHT22;13988;52.446;13.280;2022-12-10T10:41:24;-0.30;99.90
26262;DHT22;13988;52.446;13.280;2022-12-10T10:43:59;-0.30;99.90
26262;DHT22;13988;52.446;13.280;2022-12-10T10:46:26;-0.40;99.90
26262;DHT22;13988;52.446;13.280;2022-12-10T10:48:51;-0.40;99.90
26262;DHT22;13988;52.446;13.280;2022-12-10T10:51:22;-0.30;99.90
26262;DHT22;13988;52.446;13.280;2022-12-10T10:53:53;-0.30;99.90
26262;DHT22;13988;52.446;13.280;2022-12-10T10:58:53;-0.40;99.90
26262;DHT22;13988;52.446;13.280;2022-12-10T11:01:20;-0.30;99.90
26262;DHT22;13988;52.446;13.280;2022-12-10T11:03:49;-0.20;99.90
26262;DHT22;13988;52.446;13.280;2022-12-10T11:06:16;-0.20;99.90
26262;DHT22;13988;52.446;13.280;2022-12-10T11:08:45;-0.30;99.90
26262;DHT22;13988;52.446;13.280;2022-12-10T11:11:18;-0.30;99.90
26262;DHT22;13988;52.446;13.280;2022-12-10T11:13:43;-0.30;99.90
26262;DHT22;13988;52.446;13.280;2022-12-10T11:18:54;-0.20;99.90
26262;DHT22;13988;52.446;13.280;2022-12-10T11:21:21;-0.20;99.90
26262;DHT22;13988;52.446;13.280;2022-12-10T11:23:54;-0.30;99.90
26262;DHT22;13988;52.446;13.280;2022-12-10T11:37:52;-0.10;99.90
26262;DHT22;13988;52.446;13.280;2022-12-10T11:45:47;-0.10;99.90
26262;DHT22;13988;52.446;13.280;2022-12-10T11:51:03;0.00;99.90
26262;DHT22;13988;52.446;13.280;2022-12-10T11:56:43;0.10;99.90
26262;DHT22;13988;52.446;13.280;2022-12-10T12:10:52;-0.10;99.90
26262;DHT22;13988;52.446;13.280;2022-12-10T12:13:27;-0.10;99.90
26262;DHT22;13988;52.446;13.280;2022-12-10T12:16:13;-0.30;99.90
26262;DHT22;13988;52.446;13.280;2022-12-10T12:21:11;-0.30;99.90
26262;DHT22;13988;52.446;13.280;2022-12-10T12:26:36;-0.30;99.90
26262;DHT22;13988;52.446;13.280;2022-12-10T12:29:13;-0.30;99.90
26262;DHT22;13988;52.446;13.280;2022-12-10T12:31:59;-0.30;99.90
26262;DHT22;13988;52.446;13.280;2022-12-10T12:34:37;-0.20;99.90
26262;DHT22;13988;52.446;13.280;2022-12-10T12:37:09;-0.20;99.90
26262;DHT22;13988;52.446;13.280;2022-12-10T12:39:49;-0.30;99.90
26262;DHT22;13988;52.446;13.280;2022-12-10T12:44:58;-0.40;99.90
26262;DHT22;13988;52.446;13.280;2022-12-10T12:50:05;-0.20;99.90
26262;DHT22;13988;52.446;13.280;2022-12-10T12:52:57;-0.30;99.90
26262;DHT22;13988;52.446;13.280;2022-12-10T12:55:45;-0.30;99.90
26262;DHT22;13988;52.446;13.280;2022-12-10T13:01:02;-0.30;99.90
26262;DHT22;13988;52.446;13.280;2022-12-10T13:03:36;-0.30;99.90
26262;DHT22;13988;52.446;13.280;2022-12-10T13:06:23;-0.30;99.90
26262;DHT22;13988;52.446;13.280;2022-12-10T13:11:34;-0.30;99.90
26262;DHT22;13988;52.446;13.280;2022-12-10T13:24:22;-0.40;99.90
26262;DHT22;13988;52.446;13.280;2022-12-10T13:27:39;-0.40;99.90
26262;DHT22;13988;52.446;13.280;2022-12-10T13:30:32;-0.50;99.90
26262;DHT22;13988;52.446;13.280;2022-12-10T13:33:19;-0.50;99.90
26262;DHT22;13988;52.446;13.280;2022-12-10T13:35:59;-0.40;99.90
26262;DHT22;13988;52.446;13.280;2022-12-10T13:38:27;-0.50;99.90
26262;DHT22;13988;52.446;13.280;2022-12-10T13:41:06;-0.50;99.90
26262;DHT22;13988;52.446;13.280;2022-12-10T13:43:56;-0.50;99.90
26262;DHT22;13988;52.446;13.280;2022-12-10T13:46:54;-0.40;99.90
26262;DHT22;13988;52.446;13.280;2022-12-10T13:49:23;-0.40;99.90
26262;DHT22;13988;52.446;13.280;2022-12-10T13:54:55;-0.50;99.90
26262;DHT22;13988;52.446;13.280;2022-12-10T14:00:22;-0.40;99.90
26262;DHT22;13988;52.446;13.280;2022-12-10T14:08:19;-0.50;99.90
26262;DHT22;13988;52.446;13.280;2022-12-10T14:10:47;-0.40;99.90
26262;DHT22;13988;52.446;13.280;2022-12-10T14:13:15;-0.40;99.90
26262;DHT22;13988;52.446;13.280;2022-12-10T14:15:53;-0.50;99.90
26262;DHT22;13988;52.446;13.280;2022-12-10T14:18:21;-0.50;99.90
26262;DHT22;13988;52.446;13.280;2022-12-10T14:20:51;-0.60;99.90
26262;DHT22;13988;52.446;13.280;2022-12-10T14:23:29;-0.50;99.90
26262;DHT22;13988;52.446;13.280;2022-12-10T14:26:07;-0.50;99.90
26262;DHT22;13988;52.446;13.280;2022-12-10T14:28:46;-0.50;99.90
26262;DHT22;13988;52.446;13.280;2022-12-10T14:31:18;-0.50;99.90
26262;DHT22;13988;52.446;13.280;2022-12-10T14:33:46;-0.60;99.90
26262;DHT22;13988;52.446;13.280;2022-12-10T14:36:22;-0.60;99.90
26262;DHT22;13988;52.446;13.280;2022-12-10T14:38:50;-0.60;99.90
26262;DHT22;13988;52.446;13.280;2022-12-10T14:41:20;-0.60;99.90
26262;DHT22;13988;52.446;13.280;2022-12-10T14:43:48;-0.50;99.90
26262;DHT22;13988;52.446;13.280;2022-12-10T14:46:19;-0.60;99.90
26262;DHT22;13988;52.446;13.280;2022-12-10T14:48:50;-0.60;99.90
26262;DHT22;13988;52.446;13.280;2022-12-10T14:51:21;-0.50;99.90
26262;DHT22;13988;52.446;13.280;2022-12-10T14:53:49;-0.50;99.90
26262;DHT22;13988;52.446;13.280;2022-12-10T14:56:29;-0.60;99.90
26262;DHT22;13988;52.446;13.280;2022-12-10T14:59:04;-0.60;99.90
26262;DHT22;13988;52.446;13.280;2022-12-10T15:01:34;-0.50;99.90
26262;DHT22;13988;52.446;13.280;2022-12-10T15:04:03;-0.60;99.90
26262;DHT22;13988;52.446;13.280;2022-12-10T15:06:34;-0.50;99.90
26262;DHT22;13988;52.446;13.280;2022-12-10T15:09:00;-0.60;99.90
26262;DHT22;13988;52.446;13.280;2022-12-10T15:11:26;-0.60;99.90
26262;DHT22;13988;52.446;13.280;2022-12-10T15:13:56;-0.60;99.90
26262;DHT22;13988;52.446;13.280;2022-12-10T15:16:41;-0.50;99.90
26262;DHT22;13988;52.446;13.280;2022-12-10T15:21:59;-0.60;99.90
26262;DHT22;13988;52.446;13.280;2022-12-10T15:24:36;-0.70;99.90
26262;DHT22;13988;52.446;13.280;2022-12-10T15:27:21;-0.60;99.90
26262;DHT22;13988;52.446;13.280;2022-12-10T15:29:48;-0.70;99.90
26262;DHT22;13988;52.446;13.280;2022-12-10T15:32:24;-0.70;99.90
26262;DHT22;13988;52.446;13.280;2022-12-10T15:34:59;-0.70;99.90
26262;DHT22;13988;52.446;13.280;2022-12-10T15:37:38;-0.70;99.90
26262;DHT22;13988;52.446;13.280;2022-12-10T15:40:28;-0.70;99.90
26262;DHT22;13988;52.446;13.280;2022-12-10T15:42:56;-0.70;99.90
26262;DHT22;13988;52.446;13.280;2022-12-10T15:45:39;-0.70;99.90
26262;DHT22;13988;52.446;13.280;2022-12-10T15:48:08;-0.70;99.90
26262;DHT22;13988;52.446;13.280;2022-12-10T15:50:36;-0.70;99.90
26262;DHT22;13988;52.446;13.280;2022-12-10T15:53:01;-0.80;99.90
26262;DHT22;13988;52.446;13.280;2022-12-10T15:55:27;-0.80;99.90
26262;DHT22;13988;52.446;13.280;2022-12-10T15:57:53;-0.80;99.90
26262;DHT22;13988;52.446;13.280;2022-12-10T16:00:24;-0.80;99.90
26262;DHT22;13988;52.446;13.280;2022-12-10T16:03:05;-0.80;99.90
26262;DHT22;13988;52.446;13.280;2022-12-10T16:05:35;-0.70;99.90
26262;DHT22;13988;52.446;13.280;2022-12-10T16:08:13;-0.80;99.90
26262;DHT22;13988;52.446;13.280;2022-12-10T16:10:41;-0.80;99.90
26262;DHT22;13988;52.446;13.280;2022-12-10T16:13:17;-0.70;99.90
26262;DHT22;13988;52.446;13.280;2022-12-10T16:15:55;-0.70;99.90
26262;DHT22;13988;52.446;13.280;2022-12-10T16:18:23;-0.80;99.90
26262;DHT22;13988;52.446;13.280;2022-12-10T16:20:49;-0.80;99.90
26262;DHT22;13988;52.446;13.280;2022-12-10T16:23:15;-0.80;99.90
26262;DHT22;13988;52.446;13.280;2022-12-10T16:25:42;-0.80;99.90
26262;DHT22;13988;52.446;13.280;2022-12-10T16:28:28;-0.80;99.90
26262;DHT22;13988;52.446;13.280;2022-12-10T16:30:55;-0.80;99.90
26262;DHT22;13988;52.446;13.280;2022-12-10T16:33:23;-0.90;99.90
26262;DHT22;13988;52.446;13.280;2022-12-10T16:35:50;-0.80;99.90
26262;DHT22;13988;52.446;13.280;2022-12-10T16:38:17;-0.80;99.90
26262;DHT22;13988;52.446;13.280;2022-12-10T16:40:44;-0.80;99.90
26262;DHT22;13988;52.446;13.280;2022-12-10T16:43:15;-0.80;99.90
26262;DHT22;13988;52.446;13.280;2022-12-10T16:45:40;-0.80;99.90
26262;DHT22;13988;52.446;13.280;2022-12-10T16:48:06;-0.80;99.90
26262;DHT22;13988;52.446;13.280;2022-12-10T16:50:32;-0.80;99.90
26262;DHT22;13988;52.446;13.280;2022-12-10T16:53:02;-0.80;99.90
26262;DHT22;13988;52.446;13.280;2022-12-10T16:55:28;-0.80;99.90
26262;DHT22;13988;52.446;13.280;2022-12-10T16:57:54;-0.60;99.90
26262;DHT22;13988;52.446;13.280;2022-12-10T17:00:22;-0.70;99.90
26262;DHT22;13988;52.446;13.280;2022-12-10T17:02:48;-0.70;99.90
26262;DHT22;13988;52.446;13.280;2022-12-10T17:05:31;-0.70;99.90
26262;DHT22;13988;52.446;13.280;2022-12-10T17:07:57;-0.70;99.90
26262;DHT22;13988;52.446;13.280;2022-12-10T17:10:23;-0.70;99.90
26262;DHT22;13988;52.446;13.280;2022-12-10T17:13:12;-0.70;99.90
26262;DHT22;13988;52.446;13.280;2022-12-10T17:15:39;-0.60;99.90
26262;DHT22;13988;52.446;13.280;2022-12-10T17:18:05;-0.60;99.90
26262;DHT22;13988;52.446;13.280;2022-12-10T17:20:31;-0.70;99.90